Time;durP1;ratioP1;P1;durP2;ratioP2;P2;SDS_P1;SDS_P2;PMS_P1;PMS_P2;Temp;Humidity;BMP_temperature;BMP_pressure;BME280_temperature;BME280_humidity;BME280_pressure;Samples;Min_cycle;Max_cycle;Signal;HPM_P1;HPM_P2
2024/01/18 00:02:40;;;;;;;;;;;;;;;7.86;83.92;95095.88;5065204;28;19928;-60
2024/01/18 00:05:30;;;;;;;;;;;;;;;7.91;83.67;95088.63;5063900;28;19924;-60
2024/01/18 00:08:18;;;;;;;;;;;;;;;7.88;83.60;95088.22;5069287;28;19925;-61
2024/01/18 00:11:06;;;;;;;;;;;;;;;7.94;83.64;95091.41;5069144;28;20004;-61
2024/01/18 00:13:55;;;;;;;;;;;;;;;7.96;83.87;95093.72;5071065;28;19951;-61
2024/01/18 00:16:43;;;;;;;;;;;;;;;7.99;83.54;95098.38;5070581;28;19924;-59
2024/01/18 00:19:31;;;;;;;;;;;;;;;8.04;83.33;95096.19;5065531;28;19935;-59
2024/01/18 00:22:21;;;;;;;;;;;;;;;8.02;83.12;95086.88;5071446;28;19924;-61
2024/01/18 00:25:10;;;;;;;;;;;;;;;7.94;83.78;95099.50;5061099;28;19931;-59
2024/01/18 00:28:00;;;;;;;;;;;;;;;7.99;83.41;95092.97;5074349;28;20073;-59
2024/01/18 00:30:48;;;;;;;;;;;;;;;7.98;83.58;95102.25;5073183;28;19931;-59
2024/01/18 00:33:36;;;;;;;;;;;;;;;7.97;83.45;95108.81;5072142;28;20029;-59
2024/01/18 00:36:24;;;;;;;;;;;;;;;8.02;83.04;95108.50;5072458;28;19924;-59
2024/01/18 00:39:18;;;;;;;;;;;;;;;8.00;83.12;95113.50;5071991;28;19925;-59
2024/01/18 00:42:07;;;;;;;;;;;;;;;7.96;83.17;95120.75;5068310;28;19955;-60
2024/01/18 00:44:56;;;;;;;;;;;;;;;7.98;83.18;95113.06;5071313;28;19940;-59
2024/01/18 00:47:44;;;;;;;;;;;;;;;7.93;83.36;95138.47;5067543;28;19996;-59
2024/01/18 00:50:32;;;;;;;;;;;;;;;7.96;83.13;95129.66;5067989;28;19983;-62
2024/01/18 00:53:20;;;;;;;;;;;;;;;7.96;83.59;95128.88;5066270;28;19931;-61
2024/01/18 00:56:15;;;;;;;;;;;;;;;7.95;83.49;95146.25;5068593;28;22144;-59
2024/01/18 00:59:03;;;;;;;;;;;;;;;8.02;83.94;95146.34;5070566;28;19925;-59
2024/01/18 01:01:52;;;;;;;;;;;;;;;8.05;83.78;95145.63;5066138;28;19940;-59
2024/01/18 01:04:40;;;;;;;;;;;;;;;8.01;84.02;95150.19;5067699;28;19929;-58
2024/01/18 01:07:28;;;;;;;;;;;;;;;8.01;84.07;95150.97;5066649;28;19977;-59
2024/01/18 01:10:16;;;;;;;;;;;;;;;7.97;84.48;95155.53;5066004;28;19935;-59
2024/01/18 01:13:06;;;;;;;;;;;;;;;7.96;84.44;95169.41;5070629;28;19940;-61
2024/01/18 01:15:54;;;;;;;;;;;;;;;7.91;84.54;95161.63;5069144;28;20284;-62
2024/01/18 01:18:42;;;;;;;;;;;;;;;7.95;84.92;95157.06;5070484;28;19925;-59
2024/01/18 01:21:30;;;;;;;;;;;;;;;7.92;84.67;95176.69;5075054;28;20288;-58
2024/01/18 01:24:19;;;;;;;;;;;;;;;7.88;85.02;95180.13;5069849;28;19929;-60
2024/01/18 01:27:08;;;;;;;;;;;;;;;7.92;84.92;95179.38;5072472;28;19931;-59
2024/01/18 01:29:58;;;;;;;;;;;;;;;7.98;84.93;95191.47;5063189;28;19940;-59
2024/01/18 01:32:46;;;;;;;;;;;;;;;7.98;85.34;95207.69;5070200;28;19930;-59
2024/01/18 01:35:34;;;;;;;;;;;;;;;7.98;85.06;95204.97;5069661;28;19945;-59
2024/01/18 01:38:22;;;;;;;;;;;;;;;7.99;84.55;95191.13;5080195;28;19954;-60
2024/01/18 01:41:10;;;;;;;;;;;;;;;7.96;84.71;95191.81;5071150;28;19939;-59
2024/01/18 01:43:59;;;;;;;;;;;;;;;8.01;84.76;95194.22;5069851;28;19928;-62
2024/01/18 01:46:49;;;;;;;;;;;;;;;8.05;85.20;95186.19;5069018;28;20287;-59
2024/01/18 01:49:37;;;;;;;;;;;;;;;8.12;84.89;95183.59;5065744;28;20014;-59
2024/01/18 01:52:25;;;;;;;;;;;;;;;8.09;84.65;95185.09;5065296;28;20424;-59
2024/01/18 01:55:13;;;;;;;;;;;;;;;8.10;85.01;95202.13;5064454;28;19924;-60
2024/01/18 01:58:04;;;;;;;;;;;;;;;8.07;85.26;95202.81;5069414;28;19924;-59
2024/01/18 02:00:52;;;;;;;;;;;;;;;8.07;84.73;95197.41;5067737;28;19932;-60
2024/01/18 02:03:42;;;;;;;;;;;;;;;8.04;84.45;95196.22;5068809;28;19925;-60
2024/01/18 02:06:30;;;;;;;;;;;;;;;8.06;85.37;95201.25;5065809;28;19975;-59
2024/01/18 02:09:18;;;;;;;;;;;;;;;8.02;85.36;95195.00;5069257;28;19929;-59
2024/01/18 02:12:07;;;;;;;;;;;;;;;7.98;85.21;95199.56;5067419;28;19955;-60
2024/01/18 02:14:55;;;;;;;;;;;;;;;8.00;85.79;95203.50;5073218;28;19932;-59
2024/01/18 02:17:44;;;;;;;;;;;;;;;7.96;85.53;95196.44;5059087;28;19938;-59
2024/01/18 02:20:33;;;;;;;;;;;;;;;7.90;85.54;95197.91;5071096;28;20066;-59
2024/01/18 02:23:21;;;;;;;;;;;;;;;7.95;85.80;95195.69;5067953;28;20294;-59
2024/01/18 02:26:10;;;;;;;;;;;;;;;7.87;85.63;95199.38;5066800;28;19932;-59
2024/01/18 02:28:58;;;;;;;;;;;;;;;7.80;87.35;95199.28;5066992;28;19928;-60
2024/01/18 02:31:47;;;;;;;;;;;;;;;7.85;86.53;95198.97;5069993;28;19936;-60
2024/01/18 02:34:38;;;;;;;;;;;;;;;7.83;86.85;95195.84;5070150;28;20472;-59
2024/01/18 02:37:27;;;;;;;;;;;;;;;7.86;87.28;95209.41;5066721;28;19936;-61
2024/01/18 02:40:15;;;;;;;;;;;;;;;7.86;87.03;95222.94;5066478;28;19947;-60
2024/01/18 02:43:05;;;;;;;;;;;;;;;7.83;86.76;95214.78;5065748;28;19928;-59
2024/01/18 02:45:53;;;;;;;;;;;;;;;7.73;86.75;95212.66;5065238;28;19947;-59
2024/01/18 02:48:41;;;;;;;;;;;;;;;7.66;86.66;95210.59;5070624;28;19931;-60
2024/01/18 02:51:29;;;;;;;;;;;;;;;7.62;86.38;95215.16;5063691;28;19924;-61
2024/01/18 02:54:17;;;;;;;;;;;;;;;7.68;86.21;95229.94;5067576;28;20477;-62
2024/01/18 02:57:05;;;;;;;;;;;;;;;7.57;85.90;95234.38;5064003;28;19931;-59
2024/01/18 02:59:54;;;;;;;;;;;;;;;7.45;86.24;95227.16;5071155;28;20034;-59
2024/01/18 03:02:42;;;;;;;;;;;;;;;7.42;85.99;95229.81;5069039;28;19993;-61
2024/01/18 03:05:30;;;;;;;;;;;;;;;7.31;85.21;95233.09;5070066;28;19932;-59
2024/01/18 03:08:19;;;;;;;;;;;;;;;7.06;85.17;95231.78;5072652;28;19935;-59
2024/01/18 03:11:08;;;;;;;;;;;;;;;7.05;84.69;95233.72;5069800;28;20390;-59
2024/01/18 03:13:56;;;;;;;;;;;;;;;6.87;83.27;95256.84;5072418;28;19924;-58
2024/01/18 03:16:45;;;;;;;;;;;;;;;6.63;82.45;95251.66;5078757;28;19924;-64
2024/01/18 03:19:33;;;;;;;;;;;;;;;6.60;82.31;95266.63;5066209;28;19924;-61
2024/01/18 03:22:21;;;;;;;;;;;;;;;6.38;82.18;95243.75;5068674;28;19925;-59
2024/01/18 03:25:09;;;;;;;;;;;;;;;6.42;82.19;95247.31;5064671;28;19935;-59
2024/01/18 03:28:00;;;;;;;;;;;;;;;6.29;82.81;95249.34;5060837;28;19925;-58
2024/01/18 03:30:48;;;;;;;;;;;;;;;6.20;83.17;95261.44;5070585;28;19932;-58
2024/01/18 03:33:38;;;;;;;;;;;;;;;6.22;82.93;95272.63;5067388;28;20337;-58
2024/01/18 03:36:26;;;;;;;;;;;;;;;6.07;82.77;95259.94;5067403;28;19928;-58
2024/01/18 03:39:15;;;;;;;;;;;;;;;6.08;82.21;95254.22;5062753;28;19938;-58
2024/01/18 03:42:03;;;;;;;;;;;;;;;6.09;82.46;95261.16;5069810;28;19932;-60
2024/01/18 03:44:51;;;;;;;;;;;;;;;5.92;83.01;95267.66;5069682;28;20331;-59
2024/01/18 03:47:39;;;;;;;;;;;;;;;5.89;83.18;95262.13;5070118;28;19963;-59
2024/01/18 03:50:28;;;;;;;;;;;;;;;6.03;82.88;95268.72;5071276;28;19925;-60
2024/01/18 03:53:18;;;;;;;;;;;;;;;5.98;83.18;95265.50;5072792;28;20011;-58
2024/01/18 03:56:06;;;;;;;;;;;;;;;5.96;83.15;95276.59;5064512;28;19924;-58
2024/01/18 03:58:54;;;;;;;;;;;;;;;6.04;82.75;95274.88;5070657;28;19944;-59
2024/01/18 04:01:43;;;;;;;;;;;;;;;6.05;82.73;95268.38;5068886;28;19932;-58
2024/01/18 04:04:32;;;;;;;;;;;;;;;5.95;83.18;95276.94;5068000;28;19924;-58
2024/01/18 04:07:22;;;;;;;;;;;;;;;5.96;82.53;95282.00;5067226;28;20012;-58
2024/01/18 04:10:10;;;;;;;;;;;;;;;5.84;83.87;95282.03;5065007;28;19930;-58
2024/01/18 04:12:59;;;;;;;;;;;;;;;5.77;83.65;95263.78;5065596;28;19967;-60
2024/01/18 04:15:47;;;;;;;;;;;;;;;5.67;84.23;95274.25;5063903;28;19966;-59
2024/01/18 04:18:36;;;;;;;;;;;;;;;5.80;83.94;95273.06;5068246;28;19928;-60
2024/01/18 04:21:24;;;;;;;;;;;;;;;5.83;84.06;95283.16;5067344;28;19929;-59
2024/01/18 04:24:14;;;;;;;;;;;;;;;5.79;83.92;95296.53;5068497;28;19932;-61
2024/01/18 04:27:02;;;;;;;;;;;;;;;5.71;84.31;95310.16;5069393;28;19931;-60
2024/01/18 04:29:50;;;;;;;;;;;;;;;5.63;84.14;95301.09;5067024;28;19925;-59
2024/01/18 04:32:38;;;;;;;;;;;;;;;5.75;83.48;95311.84;5066998;28;19985;-60
2024/01/18 04:35:26;;;;;;;;;;;;;;;5.74;83.29;95315.63;5066384;28;20446;-66
2024/01/18 04:38:14;;;;;;;;;;;;;;;5.67;84.48;95304.69;5068597;28;20365;-59
2024/01/18 04:41:04;;;;;;;;;;;;;;;5.63;84.58;95309.19;5066035;28;19994;-60
2024/01/18 04:43:52;;;;;;;;;;;;;;;5.60;83.99;95299.09;5064450;28;20035;-59
2024/01/18 04:46:39;;;;;;;;;;;;;;;5.79;84.04;95296.53;5066751;28;20003;-58
2024/01/18 04:49:30;;;;;;;;;;;;;;;5.68;83.58;95283.91;5067852;28;19931;-58
2024/01/18 04:52:20;;;;;;;;;;;;;;;5.61;83.89;95289.88;5063393;28;19975;-58
2024/01/18 04:55:09;;;;;;;;;;;;;;;5.63;83.32;95306.47;5066916;28;19928;-59
2024/01/18 04:57:59;;;;;;;;;;;;;;;5.69;83.41;95307.81;5065950;28;19954;-61
2024/01/18 05:00:47;;;;;;;;;;;;;;;5.63;83.39;95311.09;5070143;28;19947;-61
2024/01/18 05:03:35;;;;;;;;;;;;;;;5.69;82.33;95307.03;5062646;28;19932;-60
2024/01/18 05:06:23;;;;;;;;;;;;;;;5.50;84.39;95310.34;5064637;28;19924;-58
2024/01/18 05:09:16;;;;;;;;;;;;;;;5.70;83.03;95314.78;5073135;28;19924;-58
2024/01/18 05:12:07;;;;;;;;;;;;;;;5.77;81.33;95303.41;5066792;28;19933;-59
2024/01/18 05:14:58;;;;;;;;;;;;;;;5.59;82.27;95299.41;5071660;28;19924;-59
2024/01/18 05:17:47;;;;;;;;;;;;;;;5.61;82.57;95295.28;5068131;28;19924;-60
2024/01/18 05:20:35;;;;;;;;;;;;;;;5.67;82.16;95298.50;5075082;28;19972;-60
2024/01/18 05:23:23;;;;;;;;;;;;;;;5.85;81.26;95309.75;5066109;28;19928;-62
2024/01/18 05:26:11;;;;;;;;;;;;;;;5.84;81.51;95308.97;5069052;28;20354;-60
2024/01/18 05:28:59;;;;;;;;;;;;;;;6.03;80.60;95319.16;5072141;28;19964;-58
2024/01/18 05:31:48;;;;;;;;;;;;;;;5.97;79.92;95312.44;5071110;28;19955;-60
2024/01/18 05:34:41;;;;;;;;;;;;;;;5.87;80.66;95313.69;5071219;28;19925;-59
2024/01/18 05:37:29;;;;;;;;;;;;;;;6.03;79.73;95327.22;5066003;28;20009;-59
2024/01/18 05:40:17;;;;;;;;;;;;;;;6.02;79.95;95328.38;5071612;28;19928;-59
2024/01/18 05:43:05;;;;;;;;;;;;;;;5.95;79.77;95325.47;5068709;28;19924;-58
2024/01/18 05:45:54;;;;;;;;;;;;;;;5.98;80.00;95322.09;5066276;28;19931;-58
2024/01/18 05:48:44;;;;;;;;;;;;;;;5.78;80.90;95324.59;5066925;28;19925;-59
2024/01/18 05:51:32;;;;;;;;;;;;;;;5.63;81.68;95316.47;5067609;28;19924;-60
2024/01/18 05:54:20;;;;;;;;;;;;;;;5.70;81.63;95324.75;5065232;28;19924;-58
2024/01/18 05:57:08;;;;;;;;;;;;;;;5.80;80.88;95316.16;5067903;28;20385;-59
2024/01/18 05:59:56;;;;;;;;;;;;;;;5.91;80.54;95314.59;5066495;28;19968;-58
2024/01/18 06:02:45;;;;;;;;;;;;;;;5.81;80.79;95319.69;5063704;28;19932;-62
2024/01/18 06:05:34;;;;;;;;;;;;;;;5.92;79.76;95326.16;5064744;28;19936;-61
2024/01/18 06:08:22;;;;;;;;;;;;;;;5.78;80.75;95324.59;5062992;28;19924;-59
2024/01/18 06:11:10;;;;;;;;;;;;;;;5.87;81.20;95323.69;5063003;28;19935;-58
2024/01/18 06:13:58;;;;;;;;;;;;;;;5.90;80.29;95323.75;5067701;28;20022;-60
2024/01/18 06:16:47;;;;;;;;;;;;;;;5.98;79.61;95314.00;5065791;28;19947;-60
2024/01/18 06:19:34;;;;;;;;;;;;;;;5.86;80.05;95305.94;5066377;28;20038;-65
2024/01/18 06:22:24;;;;;;;;;;;;;;;5.87;80.83;95318.31;5065310;28;21882;-58
2024/01/18 06:25:12;;;;;;;;;;;;;;;5.78;80.29;95304.97;5066027;28;19925;-59
2024/01/18 06:28:03;;;;;;;;;;;;;;;5.82;80.06;95300.47;5070205;28;19928;-58
2024/01/18 06:30:51;;;;;;;;;;;;;;;5.87;79.70;95308.31;5068138;28;20029;-58
2024/01/18 06:33:41;;;;;;;;;;;;;;;6.02;79.73;95309.50;5081142;28;19932;-58
2024/01/18 06:36:29;;;;;;;;;;;;;;;5.99;79.51;95294.78;5067143;28;19933;-58
2024/01/18 06:39:19;;;;;;;;;;;;;;;6.25;78.81;95298.91;5067767;28;19925;-57
2024/01/18 06:42:07;;;;;;;;;;;;;;;6.21;78.43;95306.91;5071800;28;19975;-60
2024/01/18 06:44:56;;;;;;;;;;;;;;;6.01;78.73;95305.22;5074368;28;19924;-59
2024/01/18 06:47:44;;;;;;;;;;;;;;;6.11;78.90;95307.41;5070159;28;19924;-60
2024/01/18 06:50:33;;;;;;;;;;;;;;;6.17;78.26;95305.25;5070257;28;19925;-60
2024/01/18 06:53:21;;;;;;;;;;;;;;;5.94;79.55;95281.56;5073546;28;20395;-61
2024/01/18 06:56:13;;;;;;;;;;;;;;;5.93;79.32;95296.16;5074633;28;20547;-60
2024/01/18 06:59:02;;;;;;;;;;;;;;;6.34;78.04;95309.50;5080149;28;19925;-61
2024/01/18 07:01:50;;;;;;;;;;;;;;;6.12;77.95;95294.72;5067283;28;19925;-60
2024/01/18 07:04:38;;;;;;;;;;;;;;;6.04;78.55;95297.22;5069330;28;19931;-60
2024/01/18 07:07:27;;;;;;;;;;;;;;;6.03;78.54;95290.28;5069278;28;19925;-60
2024/01/18 07:10:15;;;;;;;;;;;;;;;6.15;77.28;95296.72;5068883;28;20370;-61
2024/01/18 07:13:04;;;;;;;;;;;;;;;5.99;78.24;95294.78;5065938;28;19928;-60
2024/01/18 07:15:52;;;;;;;;;;;;;;;6.00;77.97;95290.97;5066786;28;19932;-63
2024/01/18 07:18:41;;;;;;;;;;;;;;;5.67;78.82;95293.91;5055659;28;19944;-61
2024/01/18 07:21:29;;;;;;;;;;;;;;;5.64;79.65;95291.88;5061556;28;19932;-60
2024/01/18 07:24:17;;;;;;;;;;;;;;;5.64;79.57;95294.56;5065272;28;19936;-58
2024/01/18 07:27:09;;;;;;;;;;;;;;;5.59;79.13;95294.81;5068562;28;20293;-59
2024/01/18 07:29:58;;;;;;;;;;;;;;;5.89;78.33;95302.56;5069911;28;19924;-59
2024/01/18 07:32:47;;;;;;;;;;;;;;;5.58;79.13;95309.41;5077580;28;19928;-61
2024/01/18 07:35:35;;;;;;;;;;;;;;;5.73;78.89;95307.91;5061233;28;19975;-60
2024/01/18 07:38:24;;;;;;;;;;;;;;;5.70;78.31;95322.06;5069389;28;20070;-59
2024/01/18 07:41:13;;;;;;;;;;;;;;;5.60;79.09;95336.81;5067500;28;20019;-58
2024/01/18 07:44:01;;;;;;;;;;;;;;;5.31;78.73;95345.19;5067862;28;20054;-59
2024/01/18 07:46:51;;;;;;;;;;;;;;;5.28;79.24;95348.56;5075998;28;19932;-59
2024/01/18 07:49:42;;;;;;;;;;;;;;;5.18;79.79;95342.50;5063992;28;19924;-60
2024/01/18 07:52:36;;;;;;;;;;;;;;;5.08;78.34;95348.34;5068813;28;19924;-59
2024/01/18 07:55:26;;;;;;;;;;;;;;;4.94;78.43;95342.53;5071229;28;19925;-58
2024/01/18 07:58:14;;;;;;;;;;;;;;;4.90;78.69;95339.75;5070953;28;19924;-59
2024/01/18 08:01:02;;;;;;;;;;;;;;;4.73;78.81;95361.47;5066299;28;19930;-59
2024/01/18 08:03:52;;;;;;;;;;;;;;;4.68;79.18;95362.47;5069223;28;20698;-59
2024/01/18 08:06:42;;;;;;;;;;;;;;;4.75;78.38;95353.09;5068446;28;19925;-60
2024/01/18 08:09:30;;;;;;;;;;;;;;;4.58;79.09;95365.63;5062291;28;19924;-58
2024/01/18 08:12:19;;;;;;;;;;;;;;;4.67;78.10;95358.22;5071156;28;19924;-58
2024/01/18 08:15:08;;;;;;;;;;;;;;;4.58;78.62;95352.19;5068990;28;19928;-58
2024/01/18 08:17:57;;;;;;;;;;;;;;;4.73;78.19;95354.19;5067099;28;20435;-61
2024/01/18 08:20:48;;;;;;;;;;;;;;;4.70;77.71;95349.50;5069716;28;20248;-58
2024/01/18 08:23:36;;;;;;;;;;;;;;;4.70;79.19;95333.34;5069928;28;19932;-58
2024/01/18 08:26:24;;;;;;;;;;;;;;;4.72;78.37;95333.00;5068493;28;20389;-58
2024/01/18 08:29:12;;;;;;;;;;;;;;;4.78;78.43;95338.94;5058441;28;19931;-59
2024/01/18 08:32:01;;;;;;;;;;;;;;;4.87;77.08;95342.31;5072265;28;19925;-59
2024/01/18 08:34:49;;;;;;;;;;;;;;;4.59;78.94;95332.25;5058823;28;20028;-59
2024/01/18 08:37:39;;;;;;;;;;;;;;;4.76;78.07;95339.28;5065458;28;20059;-59
2024/01/18 08:40:27;;;;;;;;;;;;;;;4.76;77.41;95346.59;5067654;28;19924;-60
2024/01/18 08:43:15;;;;;;;;;;;;;;;4.65;78.43;95347.03;5069122;28;20394;-58
2024/01/18 08:46:06;;;;;;;;;;;;;;;4.68;77.43;95357.09;5072642;28;20483;-59
2024/01/18 08:48:55;;;;;;;;;;;;;;;4.46;78.49;95349.47;5072816;28;20325;-59
2024/01/18 08:51:43;;;;;;;;;;;;;;;4.47;78.49;95345.66;5064186;28;19924;-62
2024/01/18 08:54:32;;;;;;;;;;;;;;;4.70;77.10;95351.41;5061774;28;20015;-60
2024/01/18 08:57:25;;;;;;;;;;;;;;;4.75;77.27;95345.81;5071218;28;20309;-59
2024/01/18 09:00:17;;;;;;;;;;;;;;;4.69;77.42;95347.94;5072650;28;20424;-59
2024/01/18 09:03:05;;;;;;;;;;;;;;;4.65;77.45;95351.63;5071845;28;19928;-59
2024/01/18 09:05:53;;;;;;;;;;;;;;;4.58;77.88;95362.94;5068858;28;19956;-60
2024/01/18 09:08:41;;;;;;;;;;;;;;;4.68;77.58;95367.84;5067363;28;19939;-60
2024/01/18 09:11:30;;;;;;;;;;;;;;;4.55;77.36;95373.56;5062634;28;20348;-61
2024/01/18 09:14:19;;;;;;;;;;;;;;;4.76;77.27;95365.41;5063722;28;19928;-64
2024/01/18 09:17:07;;;;;;;;;;;;;;;4.80;76.26;95356.34;5067947;28;19944;-61
2024/01/18 09:19:55;;;;;;;;;;;;;;;4.77;76.50;95365.06;5068792;28;19928;-61
2024/01/18 09:22:43;;;;;;;;;;;;;;;4.95;76.33;95368.31;5065978;28;20033;-60
2024/01/18 09:25:31;;;;;;;;;;;;;;;5.04;76.51;95381.66;5067532;28;20295;-60
2024/01/18 09:28:21;;;;;;;;;;;;;;;4.96;75.80;95394.91;5063258;28;19967;-62
2024/01/18 09:31:09;;;;;;;;;;;;;;;4.78;76.57;95393.53;5069751;28;19925;-59
2024/01/18 09:33:57;;;;;;;;;;;;;;;4.80;76.30;95399.38;5068616;28;20335;-58
2024/01/18 09:36:45;;;;;;;;;;;;;;;4.65;76.76;95390.06;5067926;28;19935;-59
2024/01/18 09:39:37;;;;;;;;;;;;;;;4.57;77.42;95388.22;5062800;28;19924;-58
2024/01/18 09:42:26;;;;;;;;;;;;;;;4.71;77.52;95385.25;5067115;28;19933;-62
2024/01/18 09:45:15;;;;;;;;;;;;;;;4.53;77.29;95390.03;5067445;28;20737;-59
2024/01/18 09:48:04;;;;;;;;;;;;;;;4.50;78.13;95388.00;5064990;28;19932;-58
2024/01/18 09:50:52;;;;;;;;;;;;;;;4.34;77.86;95395.94;5066164;28;19924;-59
2024/01/18 09:53:48;;;;;;;;;;;;;;;4.58;78.46;95403.28;5065120;28;19931;-58
2024/01/18 09:56:37;;;;;;;;;;;;;;;4.75;77.23;95415.72;5066809;28;19981;-59
2024/01/18 09:59:26;;;;;;;;;;;;;;;4.61;77.02;95402.59;5062121;28;20018;-58
2024/01/18 10:02:16;;;;;;;;;;;;;;;4.43;77.93;95404.69;5066945;28;19963;-58
2024/01/18 10:05:04;;;;;;;;;;;;;;;4.35;77.83;95402.09;5069337;28;20382;-59
2024/01/18 10:07:52;;;;;;;;;;;;;;;4.35;78.74;95410.94;5070162;28;19924;-59
2024/01/18 10:10:42;;;;;;;;;;;;;;;4.37;78.81;95416.00;5064231;28;19928;-58
2024/01/18 10:13:29;;;;;;;;;;;;;;;4.43;78.40;95406.59;5066655;28;19925;-59
2024/01/18 10:16:26;;;;;;;;;;;;;;;4.62;76.92;95417.59;5065057;28;20381;-59
2024/01/18 10:19:15;;;;;;;;;;;;;;;4.44;78.00;95416.22;5063911;28;20019;-62
2024/01/18 10:22:07;;;;;;;;;;;;;;;4.40;78.43;95420.69;5062369;28;19951;-59
2024/01/18 10:24:55;;;;;;;;;;;;;;;4.51;77.48;95421.06;5068813;28;20019;-59
2024/01/18 10:27:43;;;;;;;;;;;;;;;4.29;78.16;95424.91;5069544;28;19975;-58
2024/01/18 10:30:32;;;;;;;;;;;;;;;4.51;77.03;95415.69;5066662;28;19940;-62
2024/01/18 10:33:20;;;;;;;;;;;;;;;4.42;78.23;95429.19;5070852;28;20317;-58
2024/01/18 10:36:10;;;;;;;;;;;;;;;4.24;77.42;95435.88;5066190;28;20382;-59
2024/01/18 10:38:58;;;;;;;;;;;;;;;4.06;77.83;95438.72;5062484;28;19929;-59
2024/01/18 10:41:46;;;;;;;;;;;;;;;3.88;80.78;95448.03;5066679;28;19964;-59
2024/01/18 10:44:38;;;;;;;;;;;;;;;3.97;79.21;95448.75;5070578;28;19936;-60
2024/01/18 10:47:27;;;;;;;;;;;;;;;4.04;78.50;95442.84;5070617;28;19924;-62
2024/01/18 10:50:16;;;;;;;;;;;;;;;3.91;78.70;95439.31;5068594;28;19981;-59
2024/01/18 10:53:07;;;;;;;;;;;;;;;4.02;78.14;95451.25;5070425;28;20556;-59
2024/01/18 10:55:57;;;;;;;;;;;;;;;3.95;78.49;95442.94;5063934;28;20400;-60
2024/01/18 10:58:45;;;;;;;;;;;;;;;4.00;77.97;95450.00;5067344;28;20394;-60
2024/01/18 11:01:35;;;;;;;;;;;;;;;3.81;78.37;95458.53;5068407;28;19940;-59
2024/01/18 11:04:23;;;;;;;;;;;;;;;4.01;77.95;95456.94;5067609;28;20412;-59
2024/01/18 11:07:11;;;;;;;;;;;;;;;3.84;79.31;95466.72;5066749;28;20496;-58
2024/01/18 11:10:00;;;;;;;;;;;;;;;3.72;78.64;95482.75;5066348;28;19932;-59
2024/01/18 11:12:49;;;;;;;;;;;;;;;3.82;79.19;95485.03;5067135;28;19925;-58
2024/01/18 11:15:39;;;;;;;;;;;;;;;3.59;79.28;95484.56;5058549;28;19931;-59
2024/01/18 11:18:32;;;;;;;;;;;;;;;3.83;77.81;95489.28;5048683;28;19939;-59
2024/01/18 11:21:27;;;;;;;;;;;;;;;3.45;78.29;95492.06;5054537;28;19928;-58
2024/01/18 11:24:15;;;;;;;;;;;;;;;3.29;77.63;95504.47;5067334;28;19933;-59
2024/01/18 11:27:17;;;;;;;;;;;;;;;3.36;78.91;95499.41;5069410;28;19971;-59
2024/01/18 11:30:09;;;;;;;;;;;;;;;3.36;77.75;95513.59;5064460;28;19936;-59
2024/01/18 11:32:57;;;;;;;;;;;;;;;3.35;77.31;95517.38;5070403;28;19964;-58
2024/01/18 11:35:45;;;;;;;;;;;;;;;3.25;77.50;95525.00;5060879;28;20355;-59
2024/01/18 11:38:33;;;;;;;;;;;;;;;2.99;78.04;95531.25;5068923;28;19970;-58
2024/01/18 11:41:22;;;;;;;;;;;;;;;3.10;77.75;95543.22;5065447;28;20378;-61
2024/01/18 11:44:12;;;;;;;;;;;;;;;3.08;77.06;95537.38;5067086;28;19974;-58
2024/01/18 11:47:00;;;;;;;;;;;;;;;3.00;77.24;95551.59;5070395;28;19924;-58
2024/01/18 11:49:48;;;;;;;;;;;;;;;2.76;77.42;95549.44;5066588;28;19991;-62
2024/01/18 11:52:36;;;;;;;;;;;;;;;3.08;76.52;95552.69;5065696;28;19924;-59
2024/01/18 11:55:25;;;;;;;;;;;;;;;2.88;75.40;95563.00;5066422;28;19924;-59
2024/01/18 11:58:13;;;;;;;;;;;;;;;2.92;76.16;95567.72;5066630;28;19924;-59
2024/01/18 12:01:03;;;;;;;;;;;;;;;2.86;76.15;95567.88;5061439;28;20018;-59
2024/01/18 12:03:52;;;;;;;;;;;;;;;2.73;75.96;95578.81;5066974;28;19932;-60
2024/01/18 12:06:43;;;;;;;;;;;;;;;2.71;76.20;95576.41;5064287;28;20011;-60
2024/01/18 12:09:31;;;;;;;;;;;;;;;2.70;76.11;95574.06;5070905;28;20021;-60
2024/01/18 12:12:23;;;;;;;;;;;;;;;2.86;76.16;95588.53;5066458;28;20425;-60
2024/01/18 12:15:16;;;;;;;;;;;;;;;2.82;76.25;95595.66;5069337;28;20015;-58
2024/01/18 12:18:05;;;;;;;;;;;;;;;2.72;75.89;95602.16;5072438;28;20392;-58
2024/01/18 12:20:53;;;;;;;;;;;;;;;2.71;75.57;95613.16;5072630;28;20381;-59
2024/01/18 12:23:42;;;;;;;;;;;;;;;2.74;75.88;95605.28;5070572;28;20036;-59
2024/01/18 12:26:30;;;;;;;;;;;;;;;2.33;75.91;95603.88;5069111;28;20019;-59
2024/01/18 12:29:19;;;;;;;;;;;;;;;2.35;76.53;95608.94;5072880;28;19935;-60
2024/01/18 12:32:08;;;;;;;;;;;;;;;2.13;78.03;95603.69;5070200;28;19928;-58
2024/01/18 12:34:59;;;;;;;;;;;;;;;1.97;79.77;95612.19;5074125;28;19929;-58
2024/01/18 12:37:48;;;;;;;;;;;;;;;2.10;78.76;95621.97;5063639;28;20011;-59
2024/01/18 12:40:36;;;;;;;;;;;;;;;2.30;77.85;95630.53;5067000;28;19940;-59
2024/01/18 12:43:24;;;;;;;;;;;;;;;2.34;77.40;95634.13;5065477;28;20309;-59
2024/01/18 12:46:13;;;;;;;;;;;;;;;2.22;76.56;95650.03;5067845;28;19924;-58
2024/01/18 12:49:01;;;;;;;;;;;;;;;2.18;76.67;95654.44;5066838;28;20010;-58
2024/01/18 12:51:54;;;;;;;;;;;;;;;2.27;76.84;95656.03;5067622;28;20037;-60
2024/01/18 12:54:43;;;;;;;;;;;;;;;2.40;76.16;95657.00;5078384;28;19939;-59
2024/01/18 12:57:31;;;;;;;;;;;;;;;2.46;76.55;95663.78;5073023;28;19983;-58
2024/01/18 13:00:19;;;;;;;;;;;;;;;2.37;76.72;95665.66;5071550;28;20033;-59
2024/01/18 13:03:11;;;;;;;;;;;;;;;2.51;74.92;95676.25;5077799;28;19958;-59
2024/01/18 13:05:59;;;;;;;;;;;;;;;2.56;75.04;95689.50;5067559;28;20420;-59
2024/01/18 13:08:48;;;;;;;;;;;;;;;2.40;74.59;95710.59;5073303;28;19999;-59
2024/01/18 13:11:36;;;;;;;;;;;;;;;2.52;74.40;95716.13;5076293;28;20309;-59
2024/01/18 13:14:27;;;;;;;;;;;;;;;2.50;73.96;95718.31;5077967;28;19988;-60
2024/01/18 13:17:16;;;;;;;;;;;;;;;2.60;73.19;95739.47;5070730;28;19943;-58
2024/01/18 13:20:04;;;;;;;;;;;;;;;2.55;73.44;95753.03;5066513;28;20023;-59
2024/01/18 13:22:52;;;;;;;;;;;;;;;2.50;73.45;95755.84;5068919;28;20397;-59
2024/01/18 13:25:44;;;;;;;;;;;;;;;2.33;74.70;95761.97;5065929;28;19932;-58
2024/01/18 13:28:32;;;;;;;;;;;;;;;2.05;74.55;95761.38;5069152;28;20352;-59
2024/01/18 13:31:20;;;;;;;;;;;;;;;2.28;75.71;95769.34;5065639;28;20392;-58
2024/01/18 13:34:08;;;;;;;;;;;;;;;2.12;74.83;95777.00;5069720;28;19931;-59
2024/01/18 13:36:56;;;;;;;;;;;;;;;1.99;74.15;95772.56;5066772;28;19924;-60
2024/01/18 13:39:44;;;;;;;;;;;;;;;2.15;73.74;95780.97;5063231;28;19924;-62
2024/01/18 13:42:34;;;;;;;;;;;;;;;2.20;73.88;95781.63;5068128;28;20400;-58
2024/01/18 13:45:23;;;;;;;;;;;;;;;1.72;74.64;95785.00;5069146;28;19924;-59
2024/01/18 13:48:12;;;;;;;;;;;;;;;1.91;74.07;95798.16;5070567;28;19932;-58
2024/01/18 13:51:00;;;;;;;;;;;;;;;2.03;73.90;95803.78;5066495;28;19931;-59
2024/01/18 13:53:50;;;;;;;;;;;;;;;2.09;73.19;95828.53;5068823;28;19924;-59
2024/01/18 13:56:39;;;;;;;;;;;;;;;2.22;72.92;95845.59;5066991;28;19928;-59
2024/01/18 13:59:28;;;;;;;;;;;;;;;2.22;71.95;95861.69;5068047;28;20434;-62
2024/01/18 14:02:16;;;;;;;;;;;;;;;1.98;73.18;95868.19;5065888;28;20412;-59
2024/01/18 14:05:07;;;;;;;;;;;;;;;2.12;73.20;95888.72;5068146;28;20029;-59
2024/01/18 14:07:55;;;;;;;;;;;;;;;2.14;72.99;95905.28;5063827;28;19928;-58
2024/01/18 14:10:44;;;;;;;;;;;;;;;2.05;73.21;95908.69;5070010;28;19925;-59
2024/01/18 14:13:32;;;;;;;;;;;;;;;2.09;73.01;95917.72;5065969;28;20011;-59
2024/01/18 14:16:21;;;;;;;;;;;;;;;1.96;72.80;95928.47;5067702;28;19932;-59
2024/01/18 14:19:09;;;;;;;;;;;;;;;1.93;72.77;95943.28;5082491;28;19925;-61
2024/01/18 14:21:58;;;;;;;;;;;;;;;2.00;72.99;95959.69;5069008;28;20140;-58
2024/01/18 14:24:46;;;;;;;;;;;;;;;1.94;72.21;95968.16;5065990;28;19937;-60
2024/01/18 14:27:34;;;;;;;;;;;;;;;1.98;72.18;95977.97;5063097;28;19990;-60
2024/01/18 14:30:23;;;;;;;;;;;;;;;1.94;71.56;95984.22;5068417;28;19925;-58
2024/01/18 14:33:13;;;;;;;;;;;;;;;1.98;71.68;95996.72;5063854;28;19925;-59
2024/01/18 14:36:05;;;;;;;;;;;;;;;1.83;71.94;96015.81;5069038;28;20409;-60
2024/01/18 14:38:53;;;;;;;;;;;;;;;1.67;72.41;96034.06;5068423;28;20003;-59
2024/01/18 14:41:44;;;;;;;;;;;;;;;1.66;72.96;96032.50;5064522;28;20440;-62
2024/01/18 14:44:36;;;;;;;;;;;;;;;1.65;72.28;96046.16;5069531;28;20347;-58
2024/01/18 14:47:26;;;;;;;;;;;;;;;1.70;72.26;96048.72;5048706;28;19932;-60
2024/01/18 14:50:16;;;;;;;;;;;;;;;1.50;72.13;96074.03;5069515;28;20412;-59
2024/01/18 14:53:04;;;;;;;;;;;;;;;1.42;72.80;96086.22;5067269;28;20208;-59